Messwerte Mazar-i-Sharif

Temperatur

Temperatur
°C
1576384200 9.00 9.00 3
1576387800 10.00 10.00
1576391400 11.00 11.00 8
1576395000 12.00 12.00 8
1576398600 13.00 13.00 11
1576402200 14.00 14.00 11
1576405800 15.00 15.00 12
1576409400 16.00 16.00 11
1576413000 17.00 17.00 10
1576416600 18.00 18.00 9
1576420200 19.00 19.00 7
1576423800 20.00 20.00 6
1576427400 21.00 21.00 5
1576431000 22.00 22.00 5
1576434600 23.00 23.00 5
1576438200 0.00 0.00 4
1576441800 1.00 1.00 4
1576445400 2.00 2.00 3
1576449000 3.00 3.00 4
1576452600 4.00 4.00
1576456200 5.00 5.00
1576459800 6.00 6.00
1576463400 7.00 7.00 3
1576467000 8.00 8.00 3

Aktuellste Messwerte

Wettercharakter
Wetter: sonnig
Temperatur
3 °C
Feuchtigkeit
75 %
Wind
0 km/h, -
Luftdruck
1024 hPa
Messzeit: 16. Dezember 2019, 8.30Datenquelle: METAR

Weitere Messstationen in der Nähe

Messstation Temperatur Entfernung
Termiz 4 °C 59 km
Duschanbe 5 °C 248 km
Kabul -1 °C 301 km
Samarkand -1 °C 320 km
Dschalalabad 9 °C 389 km
Buchara -1 °C 416 km
Khudzhand 2 °C 448 km

Wind

Windrichtung Böen Mittelwind
° km/h km/h
1576384200 9.00 8.00 - 9.00 0
1576387800 10.00 9.00 - 10.00
1576391400 11.00 10.00 - 11.00 90° 5
1576395000 12.00 11.00 - 12.00 40° 5
1576398600 13.00 12.00 - 13.00 90° 10
1576402200 14.00 13.00 - 14.00 80° 25
1576405800 15.00 14.00 - 15.00 80° 20
1576409400 16.00 15.00 - 16.00 70° 20
1576413000 17.00 16.00 - 17.00 70° 20
1576416600 18.00 17.00 - 18.00 80° 15
1576420200 19.00 18.00 - 19.00 5
1576423800 20.00 19.00 - 20.00 5
1576427400 21.00 20.00 - 21.00 180° 5
1576431000 22.00 21.00 - 22.00 140° 5
1576434600 23.00 22.00 - 23.00 130° 5
1576438200 0.00 23.00 - 0.00 170° 5
1576441800 1.00 0.00 - 1.00 160° 5
1576445400 2.00 1.00 - 2.00 180° 5
1576449000 3.00 2.00 - 3.00 5
1576452600 4.00 3.00 - 4.00
1576456200 5.00 4.00 - 5.00
1576459800 6.00 5.00 - 6.00
1576463400 7.00 6.00 - 7.00 320° 5
1576467000 8.00 7.00 - 8.00 5

Ihre Wetterstation

Fehlt Ihre Wetterstation auf unserem Portal?

Schreiben Sie an network@meteonews.ch

Klima

Wann ist es am wärmsten? Wann regnet es am wenigsten? Unsere Klimadaten geben Auskunft.